San Carlos, CA (94070)

7:21 AM PST on November 24, 2014 (GMT -0800)
Elizabethville | Change Station
CLOSE
Current Station
Personal Weather Station
Location: San Carlos, CA
Elevation: 167 ft
Nearby Weather Stations

Elev 167 ft 37.50 °N, 122.26 °W | Updated 4 minutes ago

Clear
Clear
46.8 °F
Feels Like 47 °F
N
2.2
Wind Variable Wind from North

Today
High -- | Low -- °F
--% Chance of Precip.
Yesterday
High -- | Low -- °F
Precip. -- in
6:58 AM 4:53 PM
Waxing Crescent, 5% visible
Pressure 30.38 in
Visibility 10.0 miles
Clouds Clear
Windchill 47 °F
Dew Point 45 °F
Humidity 95%
Rainfall 0.00 in
Snow Depth Not available.
UV 0 out of 12
Pollen 2.50 out of 12
Air Quality Not available.
Flu Activity Not available.
METAR KSQL 241450Z AUTO 00000KT 10SM CLR 08/07 A3038 RMK AO2

More Conditions Fewer Conditions

Pressure 30.38 in
Visibility 10.0 miles
Clouds Clear
Windchill 47 °F
Dew Point 45 °F
Humidity 95%
Rainfall 0.00 in
Snow Depth Not available.
UV 0 out of 12
Pollen 2.50 out of 12
Air Quality Not available.
Flu Activity Not available.
METAR KSQL 241450Z AUTO 00000KT 10SM CLR 08/07 A3038 RMK AO2

More Conditions Fewer Conditions

10-Day Weather Forecast

Almanac

Astronomy

Nov. 24, 2014 Rise Set
Actual Time
Civil Twilight
Nautical Twilight
Astronomical Twilight
Moon
Length of Visible Light
Length of Day
Tomorrow will be .
, % of the Moon is Illuminated

Today's Extremes

State Highs State Lows

Community

WunderPhotos

Upload Photos

1,773,359 photos uploaded!

WunderBlogs® & News

Nearby

Air Quality

  Air Quality AQ Index Pollutant
Not available.

Snow Depth

Station Depth Elevation

Earthquake Activity

City Distance Mag. Time & Date
Minimum magnitude displayed is 2.5.

Coastal Water Temperatures

Place Temperature

Nearby Weather Stations